Subpeak Weather

  • Time Avg. Air Temp Dew Point Avg. Rel Humidity Avg. 2 Min Wind Speed Max Gust Velocity MGV Time MGV Direction Avg. Spot Wind Velocity
    2022-05-16 18:20:00-1° C-0° C100%25 km/h37 km/h18:20:00S27 km/h
    17:20:00-0° C-0° C100%27 km/h40 km/h17:16:00S31 km/h
    16:20:000° C0° C100%28 km/h34 km/h16:18:00S27 km/h
    15:20:001° C1° C100%27 km/h36 km/h15:20:00S27 km/h
    14:20:00-0° C0° C100%26 km/h29 km/h14:20:00S26 km/h
    13:20:000° C0° C100%18 km/h27 km/h13:17:00S21 km/h
    12:20:00-0° C-0° C100%17 km/h25 km/h12:16:00S19 km/h
    11:20:00-0° C-0° C100%19 km/h21 km/h11:20:00S16 km/h
    10:20:00-0° C-0° C100%22 km/h27 km/h10:18:00SE22 km/h
    09:20:00-0° C-0° C100%20 km/h24 km/h09:20:00SE20 km/h
    08:20:00-0° C-0° C100%20 km/h30 km/h08:17:00S19 km/h
    07:20:00-0° C-0° C100%19 km/h22 km/h07:19:00S18 km/h
    06:20:00-1° C-1° C100%21 km/h25 km/h06:16:00SE22 km/h
    05:20:00-1° C-1° C100%23 km/h26 km/h05:16:00S22 km/h
    04:20:00-1° C-1° C100%16 km/h19 km/h04:19:00SE16 km/h
    03:20:00-1° C-1° C100%12 km/h16 km/h03:16:00S11 km/h
    02:20:00-1° C-1° C100%12 km/h14 km/h02:19:00SE12 km/h
    01:20:00-1° C-1° C100%23 km/h25 km/h01:16:00S24 km/h
    00:20:00-1° C-1° C100%20 km/h25 km/h00:18:00SE21 km/h
    23:20:00-1° C-1° C100%21 km/h25 km/h23:16:00S20 km/h
    22:20:00-1° C-1° C100%29 km/h35 km/h22:19:00S27 km/h
    21:20:00-1° C-1° C100%29 km/h33 km/h21:16:00SE29 km/h
    20:20:00-1° C-1° C100%33 km/h37 km/h20:19:00SE31 km/h
    19:20:00-1° C-1° C100%33 km/h40 km/h19:17:00SE33 km/h
  • Time Avg. Air Temp Dew Point Avg. Rel Humidity Avg. 2 Min Wind Speed Max Gust Velocity MGV Time MGV Direction Avg. Spot Wind Velocity
    2022-05-16 18:20:00-1° C-0° C100%25 km/h37 km/h18:20:00S27 km/h
    18:15:00-1° C-1° C100%34 km/h42 km/h18:14:00SE31 km/h
    18:10:00-1° C-1° C100%30 km/h34 km/h18:10:00SE26 km/h
    18:05:00-1° C-1° C100%23 km/h28 km/h18:01:00SE21 km/h
    18:00:00-1° C-1° C100%27 km/h31 km/h17:58:00S28 km/h
    17:55:00-1° C-1° C100%22 km/h26 km/h17:52:00S22 km/h
    17:50:00-1° C-1° C100%21 km/h29 km/h17:48:00S25 km/h
    17:45:00-0° C-1° C100%27 km/h32 km/h17:44:00S27 km/h
    17:40:00-0° C-0° C100%24 km/h32 km/h17:36:00S23 km/h
    17:35:00-0° C-0° C100%27 km/h32 km/h17:33:00S28 km/h
    17:30:00-0° C-0° C100%28 km/h30 km/h17:30:00S26 km/h
    17:25:00-0° C-0° C100%27 km/h31 km/h17:23:00S28 km/h
    17:20:00-0° C-0° C100%27 km/h40 km/h17:16:00S31 km/h

Explore More

Get Revelstoke news, offers, and events via email.